Time,TemperatureF,DewpointF,PressureIn,WindDirection,WindDirectionDegrees,WindSpeedMPH,WindSpeedGustMPH,Humidity,HourlyPrecipIn,Conditions,Clouds,dailyrainin,SoftwareType,DateUTC
2013-08-18 00:00:00,71.3,61.8,30.15,ENE,62,2.0,7.0,72,0.00,OVC,OVC,0.00,WeatherDisplay:10.31,2013-08-18 04:00:00,
2013-08-18 00:05:00,71.1,61.6,30.15,ENE,61,2.0,3.0,72,0.00,OVC,OVC,0.00,WeatherDisplay:10.31,2013-08-18 04:05:00,
2013-08-18 00:10:00,71.1,61.6,30.15,ENE,65,2.0,3.0,72,0.00,OVC,OVC,0.00,WeatherDisplay:10.31,2013-08-18 04:10:00,
2013-08-18 00:20:00,70.9,61.4,30.15,NE,56,1.0,3.0,72,0.00,OVC,OVC,0.00,WeatherDisplay:10.31,2013-08-18 04:20:00,
2013-08-18 00:25:00,70.9,61.4,30.14,NE,48,1.0,5.0,72,0.00,OVC,OVC,0.00,WeatherDisplay:10.31,2013-08-18 04:25:00,
2013-08-18 00:30:00,70.9,61.4,30.14,ENE,57,3.0,5.0,72,0.00,OVC,OVC,0.00,WeatherDisplay:10.31,2013-08-18 04:30:00,
2013-08-18 00:40:00,70.8,61.3,30.15,East,90,2.0,3.0,72,0.00,OVC,OVC,0.00,WeatherDisplay:10.31,2013-08-18 04:40:00,
2013-08-18 00:50:00,70.4,60.5,30.14,NE,50,1.0,5.0,71,0.00,OVC,OVC,0.00,WeatherDisplay:10.31,2013-08-18 04:50:00,
2013-08-18 01:00:00,70.4,60.1,30.15,ENE,66,2.0,3.0,70,0.00,OVC,OVC,0.00,WeatherDisplay:10.31,2013-08-18 05:00:00,
2013-08-18 01:05:00,70.4,59.7,30.15,ENE,58,1.0,6.0,69,0.00,OVC,OVC,0.00,WeatherDisplay:10.31,2013-08-18 05:05:00,
2013-08-18 01:10:00,70.4,59.7,30.15,NE,45,2.0,3.0,69,0.00,OVC,OVC,0.00,WeatherDisplay:10.31,2013-08-18 05:10:00,
2013-08-18 01:20:00,70.4,60.1,30.15,NE,51,1.0,5.0,70,0.00,OVC,OVC,0.00,WeatherDisplay:10.31,2013-08-18 05:20:00,
2013-08-18 01:30:00,70.3,60.4,30.15,ENE,62,2.0,6.0,71,0.00,OVC,OVC,0.00,WeatherDisplay:10.31,2013-08-18 05:30:00,
2013-08-18 01:40:00,70.1,60.7,30.14,ENE,61,2.0,3.0,72,0.00,OVC,OVC,0.00,WeatherDisplay:10.31,2013-08-18 05:40:00,
2013-08-18 01:50:00,69.9,60.8,30.14,NE,45,2.0,3.0,73,0.00,OVC,OVC,0.00,WeatherDisplay:10.31,2013-08-18 05:50:00,
2013-08-18 02:00:00,69.8,61.1,30.14,NE,56,1.0,3.0,74,0.00,OVC,OVC,0.00,WeatherDisplay:10.31,2013-08-18 06:00:00,
2013-08-18 02:05:00,69.8,61.1,30.13,NE,45,2.0,3.0,74,0.00,OVC,OVC,0.00,WeatherDisplay:10.31,2013-08-18 06:05:00,
2013-08-18 02:10:00,69.6,60.9,30.14,NE,45,1.0,2.0,74,0.00,OVC,OVC,0.00,WeatherDisplay:10.31,2013-08-18 06:10:00,
2013-08-18 02:20:00,69.6,60.9,30.13,ENE,66,1.0,5.0,74,0.00,OVC,OVC,0.00,WeatherDisplay:10.31,2013-08-18 06:20:00,
2013-08-18 02:30:00,69.6,61.3,30.13,NE,45,2.0,3.0,75,0.00,OVC,OVC,0.00,WeatherDisplay:10.31,2013-08-18 06:30:00,
2013-08-18 02:40:00,69.4,61.1,30.13,NE,45,0.0,5.0,75,0.00,OVC,OVC,0.00,WeatherDisplay:10.31,2013-08-18 06:40:00,
2013-08-18 02:50:00,69.4,61.1,30.13,NE,45,1.0,3.0,75,0.00,OVC,OVC,0.00,WeatherDisplay:10.31,2013-08-18 06:50:00,
2013-08-18 03:00:00,69.3,61.4,30.13,NE,45,1.0,3.0,76,0.00,OVC,OVC,0.00,WeatherDisplay:10.31,2013-08-18 07:00:00,
2013-08-18 03:05:00,69.3,61.4,30.13,NNE,28,0.0,3.0,76,0.00,OVC,OVC,0.00,WeatherDisplay:10.31,2013-08-18 07:05:00,
2013-08-18 03:10:00,69.3,61.8,30.12,NNE,17,0.0,3.0,77,0.00,OVC,OVC,0.00,WeatherDisplay:10.31,2013-08-18 07:10:00,
2013-08-18 03:20:00,69.3,62.1,30.12,NNE,23,1.0,3.0,78,0.00,OVC,OVC,0.00,WeatherDisplay:10.31,2013-08-18 07:20:00,
2013-08-18 03:30:00,69.1,61.9,30.13,NNE,23,2.0,3.0,78,0.00,OVC,OVC,0.00,WeatherDisplay:10.31,2013-08-18 07:30:00,
2013-08-18 03:40:00,68.9,62.1,30.12,NNE,23,2.0,3.0,79,0.00,OVC,OVC,0.00,WeatherDisplay:10.31,2013-08-18 07:40:00,
2013-08-18 03:50:00,68.8,62.0,30.13,NNE,23,0.0,2.0,79,0.00,OVC,OVC,0.00,WeatherDisplay:10.31,2013-08-18 07:50:00,
2013-08-18 04:00:00,68.8,62.0,30.13,NNE,23,0.0,3.0,79,0.00,OVC,OVC,0.00,WeatherDisplay:10.31,2013-08-18 08:00:00,
2013-08-18 04:05:00,68.6,61.8,30.13,NNE,23,0.0,2.0,79,0.00,OVC,OVC,0.00,WeatherDisplay:10.31,2013-08-18 08:05:00,
2013-08-18 04:10:00,68.6,61.8,30.13,NNE,23,0.0,3.0,79,0.00,OVC,OVC,0.00,WeatherDisplay:10.31,2013-08-18 08:10:00,
2013-08-18 04:20:00,68.6,61.5,30.12,NNE,23,0.0,3.0,78,0.00,OVC,OVC,0.00,WeatherDisplay:10.31,2013-08-18 08:20:00,
2013-08-18 04:30:00,68.6,61.5,30.12,NNE,23,0.0,1.0,78,0.00,OVC,OVC,0.00,WeatherDisplay:10.31,2013-08-18 08:30:00,
2013-08-18 04:40:00,68.6,61.5,30.13,NNE,23,0.0,2.0,78,0.00,OVC,OVC,0.00,WeatherDisplay:10.31,2013-08-18 08:40:00,
2013-08-18 04:50:00,68.6,61.5,30.12,NNE,23,1.0,2.0,78,0.00,OVC,OVC,0.00,WeatherDisplay:10.31,2013-08-18 08:50:00,
2013-08-18 05:00:00,68.4,60.9,30.13,NNE,23,0.0,2.0,77,0.00,OVC,OVC,0.00,WeatherDisplay:10.31,2013-08-18 09:00:00,
2013-08-18 05:10:00,68.3,60.4,30.14,NNE,23,0.0,1.0,76,0.00,OVC,OVC,0.00,WeatherDisplay:10.31,2013-08-18 09:10:00,
2013-08-18 05:20:00,67.9,59.7,30.14,NNE,23,1.0,2.0,75,0.01,RA,RA,0.01,WeatherDisplay:10.31,2013-08-18 09:20:00,
2013-08-18 05:30:00,67.8,60.3,30.14,NNE,23,0.0,2.0,77,0.00,OVC,OVC,0.01,WeatherDisplay:10.31,2013-08-18 09:30:00,
2013-08-18 05:40:00,67.4,60.7,30.14,NNE,23,0.0,2.0,79,0.01,RA,RA,0.02,WeatherDisplay:10.31,2013-08-18 09:40:00,
2013-08-18 05:50:00,67.1,61.1,30.14,NNE,23,1.0,2.0,81,0.00,OVC,OVC,0.02,WeatherDisplay:10.31,2013-08-18 09:50:00,
2013-08-18 06:00:00,66.6,60.9,30.14,NNE,23,0.0,1.0,82,0.00,OVC,OVC,0.02,WeatherDisplay:10.31,2013-08-18 10:00:00,
2013-08-18 06:05:00,66.4,61.1,30.14,NNE,23,0.0,1.0,83,0.01,RA,RA,0.03,WeatherDisplay:10.31,2013-08-18 10:05:00,
2013-08-18 06:10:00,66.3,61.0,30.15,NNE,23,0.0,1.0,83,0.00,RA,RA,0.03,WeatherDisplay:10.31,2013-08-18 10:10:00,
2013-08-18 06:20:00,66.1,61.5,30.15,NNE,23,0.0,3.0,85,0.00,OVC,OVC,0.03,WeatherDisplay:10.31,2013-08-18 10:20:00,
2013-08-18 06:30:00,66.1,61.8,30.15,NNE,22,2.0,3.0,86,0.00,OVC,OVC,0.03,WeatherDisplay:10.31,2013-08-18 10:30:00,
2013-08-18 06:40:00,65.8,61.8,30.15,NNE,23,0.0,2.0,87,0.00,RA,RA,0.04,WeatherDisplay:10.31,2013-08-18 10:40:00,
2013-08-18 06:50:00,65.5,61.5,30.15,NNE,26,2.0,3.0,87,0.00,OVC,OVC,0.04,WeatherDisplay:10.31,2013-08-18 10:50:00,
2013-08-18 07:00:00,64.8,60.8,30.15,NE,52,1.0,3.0,87,0.01,RA,RA,0.05,WeatherDisplay:10.31,2013-08-18 11:00:00,
2013-08-18 07:05:00,64.7,60.7,30.15,ENE,65,1.0,5.0,87,0.00,RA,RA,0.05,WeatherDisplay:10.31,2013-08-18 11:05:00,
2013-08-18 07:10:00,64.5,60.5,30.15,ENE,68,1.0,3.0,87,0.00,BKN,BKN,0.05,WeatherDisplay:10.31,2013-08-18 11:10:00,
2013-08-18 07:20:00,64.3,60.3,30.15,ENE,68,1.0,2.0,87,0.00,OVC,OVC,0.05,WeatherDisplay:10.31,2013-08-18 11:20:00,
2013-08-18 07:30:00,64.3,60.3,30.15,ENE,68,0.0,2.0,87,0.01,RA,RA,0.06,WeatherDisplay:10.31,2013-08-18 11:30:00,
2013-08-18 07:40:00,64.5,60.5,30.15,ENE,68,0.0,2.0,87,0.00,OVC,OVC,0.06,WeatherDisplay:10.31,2013-08-18 11:40:00,
2013-08-18 07:50:00,64.5,60.2,30.15,ENE,68,0.0,2.0,86,0.00,OVC,OVC,0.06,WeatherDisplay:10.31,2013-08-18 11:50:00,
2013-08-18 08:00:00,64.3,60.3,30.15,ENE,68,0.0,1.0,87,0.00,RA,RA,0.07,WeatherDisplay:10.31,2013-08-18 12:00:00,
2013-08-18 08:05:00,64.3,60.3,30.16,ENE,68,0.0,1.0,87,0.00,OVC,OVC,0.07,WeatherDisplay:10.31,2013-08-18 12:05:00,
2013-08-18 08:10:00,64.3,60.3,30.16,ENE,68,0.0,1.0,87,0.00,OVC,OVC,0.07,WeatherDisplay:10.31,2013-08-18 12:10:00,
2013-08-18 08:20:00,64.5,60.5,30.16,ENE,68,0.0,2.0,87,0.00,OVC,OVC,0.07,WeatherDisplay:10.31,2013-08-18 12:20:00,
2013-08-18 08:30:00,64.7,61.1,30.16,ENE,68,0.0,1.0,88,0.00,OVC,OVC,0.07,WeatherDisplay:10.31,2013-08-18 12:30:00,
2013-08-18 08:40:00,64.9,61.6,30.16,ENE,68,1.0,2.0,89,0.00,RA,RA,0.08,WeatherDisplay:10.31,2013-08-18 12:40:00,
2013-08-18 08:50:00,65.2,61.9,30.15,ENE,65,2.0,3.0,89,0.00,OVC,OVC,0.08,WeatherDisplay:10.31,2013-08-18 12:50:00,
2013-08-18 09:00:00,65.5,62.2,30.16,NE,45,0.0,3.0,89,0.00,OVC,OVC,0.08,WeatherDisplay:10.31,2013-08-18 13:00:00,
2013-08-18 09:05:00,65.6,62.3,30.16,NE,45,0.0,0.0,89,0.01,RA,RA,0.09,WeatherDisplay:10.31,2013-08-18 13:05:00,
2013-08-18 09:10:00,65.8,62.8,30.16,NE,45,0.0,1.0,90,0.00,RA,RA,0.09,WeatherDisplay:10.31,2013-08-18 13:10:00,
2013-08-18 09:20:00,66.0,63.0,30.16,NE,45,0.0,1.0,90,0.00,OVC,OVC,0.09,WeatherDisplay:10.31,2013-08-18 13:20:00,
2013-08-18 09:30:00,66.3,63.3,30.17,NE,45,0.0,1.0,90,0.01,RA,RA,0.10,WeatherDisplay:10.31,2013-08-18 13:30:00,
2013-08-18 09:40:00,66.4,63.4,30.17,NE,45,0.0,1.0,90,0.00,OVC,OVC,0.10,WeatherDisplay:10.31,2013-08-18 13:40:00,
2013-08-18 09:50:00,66.8,64.1,30.17,NE,45,0.0,1.0,91,0.01,RA,RA,0.11,WeatherDisplay:10.31,2013-08-18 13:50:00,
2013-08-18 10:00:00,66.9,64.2,30.17,NE,45,0.0,2.0,91,0.00,OVC,OVC,0.11,WeatherDisplay:10.31,2013-08-18 14:00:00,
2013-08-18 10:05:00,67.1,64.4,30.17,NE,45,0.0,2.0,91,0.00,OVC,OVC,0.11,WeatherDisplay:10.31,2013-08-18 14:05:00,
2013-08-18 10:10:00,67.1,64.4,30.17,NE,45,0.0,1.0,91,0.01,RA,RA,0.12,WeatherDisplay:10.31,2013-08-18 14:10:00,
2013-08-18 10:20:00,67.3,64.6,30.17,NE,45,1.0,3.0,91,0.00,OVC,OVC,0.12,WeatherDisplay:10.31,2013-08-18 14:20:00,
2013-08-18 10:30:00,67.4,64.7,30.17,NE,45,2.0,3.0,91,0.01,RA,RA,0.13,WeatherDisplay:10.31,2013-08-18 14:30:00,
2013-08-18 10:40:00,67.6,64.9,30.17,NE,45,0.0,3.0,91,0.00,OVC,OVC,0.13,WeatherDisplay:10.31,2013-08-18 14:40:00,
2013-08-18 10:50:00,67.8,65.1,30.17,NNE,28,3.0,6.0,91,0.00,OVC,OVC,0.13,WeatherDisplay:10.31,2013-08-18 14:50:00,
2013-08-18 11:00:00,67.8,65.1,30.17,North,3,5.0,6.0,91,0.00,RA,RA,0.14,WeatherDisplay:10.31,2013-08-18 15:00:00,
2013-08-18 11:05:00,67.8,65.1,30.17,North,351,0.0,7.0,91,0.00,OVC,OVC,0.14,WeatherDisplay:10.31,2013-08-18 15:05:00,
2013-08-18 11:10:00,67.9,65.2,30.17,NNW,345,3.0,6.0,91,0.00,OVC,OVC,0.14,WeatherDisplay:10.31,2013-08-18 15:10:00,
2013-08-18 11:20:00,67.9,64.9,30.17,NNW,342,2.0,6.0,90,0.00,OVC,OVC,0.14,WeatherDisplay:10.31,2013-08-18 15:20:00,
2013-08-18 11:30:00,67.8,64.8,30.17,North,356,6.0,9.0,90,0.01,RA,RA,0.15,WeatherDisplay:10.31,2013-08-18 15:30:00,
2013-08-18 11:40:00,68.1,65.1,30.16,North,3,5.0,9.0,90,0.00,OVC,OVC,0.15,WeatherDisplay:10.31,2013-08-18 15:40:00,
2013-08-18 11:45:00,68.3,65.2,30.16,North,359,3.0,7.0,90,0.00,OVC,OVC,0.15,WeatherDisplay:10.31,2013-08-18 15:45:00,
2013-08-18 11:50:00,68.4,65.3,30.16,North,354,2.0,7.0,90,0.00,OVC,OVC,0.15,WeatherDisplay:10.31,2013-08-18 15:50:00,
2013-08-18 12:00:00,68.4,65.0,30.16,North,360,3.0,6.0,89,0.00,OVC,OVC,0.15,WeatherDisplay:10.31,2013-08-18 16:00:00,
2013-08-18 12:10:00,68.6,65.2,30.16,NNW,339,1.0,6.0,89,0.00,OVC,OVC,0.15,WeatherDisplay:10.31,2013-08-18 16:10:00,
2013-08-18 12:15:00,68.7,65.3,30.16,NNW,345,2.0,6.0,89,0.00,OVC,OVC,0.15,WeatherDisplay:10.31,2013-08-18 16:15:00,
2013-08-18 12:20:00,68.8,65.1,30.16,North,3,2.0,9.0,88,0.00,OVC,OVC,0.15,WeatherDisplay:10.31,2013-08-18 16:20:00,
2013-08-18 12:30:00,68.9,65.2,30.15,North,3,0.0,3.0,88,0.01,RA,RA,0.16,WeatherDisplay:10.31,2013-08-18 16:30:00,
2013-08-18 12:40:00,69.1,65.4,30.15,North,0,0.0,5.0,88,0.00,OVC,OVC,0.16,WeatherDisplay:10.31,2013-08-18 16:40:00,
2013-08-18 12:50:00,69.1,65.1,30.15,North,357,1.0,5.0,87,0.00,OVC,OVC,0.16,WeatherDisplay:10.31,2013-08-18 16:50:00,
2013-08-18 13:00:00,69.3,65.3,30.15,North,354,0.0,3.0,87,0.00,OVC,OVC,0.16,WeatherDisplay:10.31,2013-08-18 17:00:00,
2013-08-18 13:05:00,69.3,65.3,30.15,North,7,2.0,7.0,87,0.00,OVC,OVC,0.16,WeatherDisplay:10.31,2013-08-18 17:05:00,
2013-08-18 13:10:00,69.2,64.9,30.15,North,7,1.0,3.0,86,0.00,OVC,OVC,0.16,WeatherDisplay:10.31,2013-08-18 17:10:00,
2013-08-18 13:20:00,69.3,64.9,30.15,North,360,3.0,6.0,86,0.00,OVC,OVC,0.16,WeatherDisplay:10.31,2013-08-18 17:20:00,
2013-08-18 13:30:00,69.3,64.6,30.15,North,360,2.0,5.0,85,0.00,OVC,OVC,0.16,WeatherDisplay:10.31,2013-08-18 17:30:00,
2013-08-18 13:40:00,69.2,64.5,30.15,North,4,2.0,3.0,85,0.01,RA,RA,0.17,WeatherDisplay:10.31,2013-08-18 17:40:00,
2013-08-18 13:50:00,69.4,65.0,30.14,NNE,25,3.0,7.0,86,0.00,OVC,OVC,0.17,WeatherDisplay:10.31,2013-08-18 17:50:00,
2013-08-18 14:00:00,69.1,64.1,30.14,North,10,5.0,9.0,84,0.00,OVC,OVC,0.17,WeatherDisplay:10.31,2013-08-18 18:00:00,
2013-08-18 14:05:00,68.9,63.5,30.14,NNE,13,5.0,10.0,83,0.00,OVC,OVC,0.17,WeatherDisplay:10.31,2013-08-18 18:05:00,
2013-08-18 14:10:00,68.6,63.2,30.14,NNE,12,6.0,10.0,83,0.00,OVC,OVC,0.17,WeatherDisplay:10.31,2013-08-18 18:10:00,
2013-08-18 14:15:00,68.6,62.9,30.14,NNE,13,0.0,6.0,82,0.01,RA,RA,0.18,WeatherDisplay:10.31,2013-08-18 18:15:00,
2013-08-18 14:25:00,68.4,62.3,30.14,NNE,14,2.0,5.0,81,0.00,OVC,OVC,0.18,WeatherDisplay:10.31,2013-08-18 18:25:00,
2013-08-18 14:30:00,68.4,62.0,30.14,NNE,18,0.0,5.0,80,0.00,OVC,OVC,0.18,WeatherDisplay:10.31,2013-08-18 18:30:00,
2013-08-18 14:40:00,68.9,62.5,30.13,NNE,23,2.0,3.0,80,0.00,OVC,OVC,0.18,WeatherDisplay:10.31,2013-08-18 18:40:00,
2013-08-18 14:50:00,69.3,62.5,30.13,North,6,2.0,3.0,79,0.01,RA,RA,0.19,WeatherDisplay:10.31,2013-08-18 18:50:00,
2013-08-18 15:00:00,69.5,62.4,30.13,NNE,19,1.0,5.0,78,0.00,OVC,OVC,0.19,WeatherDisplay:10.31,2013-08-18 19:00:00,
2013-08-18 15:05:00,69.6,62.1,30.13,NNE,32,2.0,3.0,77,0.00,OVC,OVC,0.19,WeatherDisplay:10.31,2013-08-18 19:05:00,
2013-08-18 15:10:00,69.8,61.9,30.13,NE,45,1.0,3.0,76,0.00,OVC,OVC,0.19,WeatherDisplay:10.31,2013-08-18 19:10:00,
2013-08-18 15:20:00,69.9,61.2,30.13,NNE,24,2.0,3.0,74,0.00,OVC,OVC,0.19,WeatherDisplay:10.31,2013-08-18 19:20:00,
2013-08-18 15:30:00,70.3,61.6,30.13,NNE,27,1.0,7.0,74,0.00,OVC,OVC,0.19,WeatherDisplay:10.31,2013-08-18 19:30:00,
2013-08-18 15:40:00,70.6,61.5,30.12,NNE,24,0.0,3.0,73,0.00,RA,RA,0.20,WeatherDisplay:10.31,2013-08-18 19:40:00,
2013-08-18 15:50:00,70.9,61.8,30.12,ENE,65,1.0,3.0,73,0.00,OVC,OVC,0.20,WeatherDisplay:10.31,2013-08-18 19:50:00,
2013-08-18 16:00:00,71.3,61.8,30.12,ENE,68,0.0,2.0,72,0.00,BKN,BKN,0.20,WeatherDisplay:10.31,2013-08-18 20:00:00,
2013-08-18 16:05:00,71.5,61.6,30.11,NNE,19,3.0,7.0,71,0.00,BKN,BKN,0.20,WeatherDisplay:10.31,2013-08-18 20:05:00,
2013-08-18 16:10:00,71.8,61.5,30.11,North,2,3.0,6.0,70,0.00,SCT,SCT,0.20,WeatherDisplay:10.31,2013-08-18 20:10:00,
2013-08-18 16:20:00,72.1,60.1,30.11,North,10,1.0,3.0,66,0.00,SCT,SCT,0.20,WeatherDisplay:10.31,2013-08-18 20:20:00,
2013-08-18 16:30:00,73.2,60.3,30.11,NNE,22,1.0,3.0,64,0.00,SCT,SCT,0.20,WeatherDisplay:10.31,2013-08-18 20:30:00,
2013-08-18 16:40:00,73.9,59.6,30.11,NNE,24,0.0,3.0,61,0.00,OVC,OVC,0.20,WeatherDisplay:10.31,2013-08-18 20:40:00,
2013-08-18 16:50:00,73.8,59.5,30.11,ENE,58,0.0,3.0,61,0.00,OVC,OVC,0.20,WeatherDisplay:10.31,2013-08-18 20:50:00,
2013-08-18 17:00:00,73.3,59.0,30.11,ENE,68,0.0,3.0,61,0.00,OVC,OVC,0.20,WeatherDisplay:10.31,2013-08-18 21:00:00,
2013-08-18 17:05:00,73.0,58.3,30.12,ENE,68,1.0,3.0,60,0.00,OVC,OVC,0.20,WeatherDisplay:10.31,2013-08-18 21:05:00,
2013-08-18 17:10:00,72.8,58.6,30.12,ENE,68,0.0,2.0,61,0.00,OVC,OVC,0.20,WeatherDisplay:10.31,2013-08-18 21:10:00,
2013-08-18 17:20:00,72.7,58.5,30.12,ENE,68,0.0,3.0,61,0.00,OVC,OVC,0.20,WeatherDisplay:10.31,2013-08-18 21:20:00,
2013-08-18 17:30:00,72.3,57.2,30.12,ENE,68,1.0,3.0,59,0.00,OVC,OVC,0.20,WeatherDisplay:10.31,2013-08-18 21:30:00,
2013-08-18 17:40:00,72.3,57.2,30.12,NE,45,1.0,2.0,59,0.00,SCT,SCT,0.20,WeatherDisplay:10.31,2013-08-18 21:40:00,
2013-08-18 17:50:00,72.5,56.9,30.11,NE,45,0.0,2.0,58,0.00,SCT,SCT,0.20,WeatherDisplay:10.31,2013-08-18 21:50:00,
2013-08-18 18:00:00,72.8,57.6,30.11,NE,45,0.0,3.0,59,0.00,BKN,BKN,0.20,WeatherDisplay:10.31,2013-08-18 22:00:00,
2013-08-18 18:10:00,73.0,56.9,30.11,NE,45,0.0,1.0,57,0.00,OVC,OVC,0.20,WeatherDisplay:10.31,2013-08-18 22:10:00,
2013-08-18 18:15:00,73.0,56.9,30.11,NE,45,1.0,3.0,57,0.00,OVC,OVC,0.20,WeatherDisplay:10.31,2013-08-18 22:15:00,
2013-08-18 18:20:00,72.8,57.2,30.12,NE,45,0.0,3.0,58,0.00,OVC,OVC,0.20,WeatherDisplay:10.31,2013-08-18 22:20:00,
2013-08-18 18:30:00,72.7,58.0,30.12,NNE,19,1.0,5.0,60,0.00,OVC,OVC,0.20,WeatherDisplay:10.31,2013-08-18 22:30:00,
2013-08-18 18:35:00,72.5,58.3,30.12,NW,316,1.0,3.0,61,0.00,OVC,OVC,0.20,WeatherDisplay:10.31,2013-08-18 22:35:00,
2013-08-18 18:40:00,72.3,58.1,30.12,WNW,292,3.0,6.0,61,0.00,OVC,OVC,0.20,WeatherDisplay:10.31,2013-08-18 22:40:00,
2013-08-18 18:50:00,72.0,58.7,30.12,WNW,292,2.0,5.0,63,0.00,OVC,OVC,0.20,WeatherDisplay:10.31,2013-08-18 22:50:00,
2013-08-18 19:00:00,71.6,58.8,30.12,WNW,287,1.0,5.0,64,0.00,OVC,OVC,0.20,WeatherDisplay:10.31,2013-08-18 23:00:00,
2013-08-18 19:05:00,71.5,59.5,30.11,WNW,292,2.0,6.0,66,0.00,OVC,OVC,0.20,WeatherDisplay:10.31,2013-08-18 23:05:00,
2013-08-18 19:10:00,71.5,60.8,30.11,WNW,296,2.0,7.0,69,0.00,OVC,OVC,0.20,WeatherDisplay:10.31,2013-08-18 23:10:00,
2013-08-18 19:20:00,71.3,61.0,30.11,WNW,297,3.0,5.0,70,0.00,OVC,OVC,0.20,WeatherDisplay:10.31,2013-08-18 23:20:00,
2013-08-18 19:30:00,71.1,61.2,30.11,NNW,337,0.0,3.0,71,0.00,OVC,OVC,0.20,WeatherDisplay:10.31,2013-08-18 23:30:00,
2013-08-18 19:40:00,70.8,61.3,30.12,NNW,337,0.0,3.0,72,0.00,OVC,OVC,0.20,WeatherDisplay:10.31,2013-08-18 23:40:00,
2013-08-18 19:50:00,70.6,61.5,30.11,NNW,337,0.0,0.0,73,0.00,OVC,OVC,0.20,WeatherDisplay:10.31,2013-08-18 23:50:00,
2013-08-18 20:00:00,70.4,61.7,30.12,NNW,337,0.0,2.0,74,0.00,OVC,OVC,0.20,WeatherDisplay:10.31,2013-08-19 00:00:00,
2013-08-18 20:05:00,70.3,61.6,30.12,NNW,337,0.0,3.0,74,0.00,OVC,OVC,0.20,WeatherDisplay:10.31,2013-08-19 00:05:00,
2013-08-18 20:10:00,70.3,61.6,30.12,NNW,337,0.0,2.0,74,0.00,OVC,OVC,0.20,WeatherDisplay:10.31,2013-08-19 00:10:00,
2013-08-18 20:20:00,70.1,61.4,30.12,NNW,337,0.0,2.0,74,0.00,OVC,OVC,0.20,WeatherDisplay:10.31,2013-08-19 00:20:00,
2013-08-18 20:30:00,69.9,61.2,30.12,NNW,337,0.0,1.0,74,0.00,OVC,OVC,0.20,WeatherDisplay:10.31,2013-08-19 00:30:00,
2013-08-18 20:40:00,69.8,61.5,30.11,NNW,337,1.0,3.0,75,0.00,OVC,OVC,0.20,WeatherDisplay:10.31,2013-08-19 00:40:00,
2013-08-18 20:50:00,69.6,61.3,30.11,NNW,337,1.0,5.0,75,0.00,OVC,OVC,0.20,WeatherDisplay:10.31,2013-08-19 00:50:00,
2013-08-18 21:00:00,69.5,61.3,30.11,NNW,337,1.0,3.0,75,0.00,OVC,OVC,0.20,WeatherDisplay:10.31,2013-08-19 01:00:00,
2013-08-18 21:05:00,69.4,61.5,30.12,NNW,337,1.0,3.0,76,0.00,OVC,OVC,0.20,WeatherDisplay:10.31,2013-08-19 01:05:00,
2013-08-18 21:10:00,69.3,61.4,30.12,NNW,337,2.0,5.0,76,0.00,OVC,OVC,0.20,WeatherDisplay:10.31,2013-08-19 01:10:00,
2013-08-18 21:20:00,69.1,61.6,30.12,NNW,337,0.0,3.0,77,0.00,OVC,OVC,0.20,WeatherDisplay:10.31,2013-08-19 01:20:00,
2013-08-18 21:30:00,68.9,61.4,30.13,NNW,337,2.0,5.0,77,0.00,OVC,OVC,0.20,WeatherDisplay:10.31,2013-08-19 01:30:00,
2013-08-18 21:40:00,68.6,61.5,30.14,NNW,337,2.0,3.0,78,0.00,OVC,OVC,0.20,WeatherDisplay:10.31,2013-08-19 01:40:00,
2013-08-18 21:45:00,68.4,61.3,30.14,NNW,337,1.0,2.0,78,0.00,OVC,OVC,0.20,WeatherDisplay:10.31,2013-08-19 01:45:00,
2013-08-18 21:50:00,68.4,61.6,30.14,NNW,337,2.0,3.0,79,0.00,OVC,OVC,0.20,WeatherDisplay:10.31,2013-08-19 01:50:00,
2013-08-18 22:00:00,68.1,61.3,30.14,NNW,335,2.0,3.0,79,0.00,OVC,OVC,0.20,WeatherDisplay:10.31,2013-08-19 02:00:00,
2013-08-18 22:05:00,67.9,61.1,30.14,NW,324,1.0,2.0,79,0.00,OVC,OVC,0.20,WeatherDisplay:10.31,2013-08-19 02:05:00,
2013-08-18 22:10:00,67.9,61.5,30.13,NW,315,1.0,3.0,80,0.00,OVC,OVC,0.20,WeatherDisplay:10.31,2013-08-19 02:10:00,
2013-08-18 22:20:00,67.6,61.6,30.13,NW,315,0.0,3.0,81,0.00,OVC,OVC,0.20,WeatherDisplay:10.31,2013-08-19 02:20:00,
2013-08-18 22:30:00,67.3,61.6,30.13,NW,315,2.0,3.0,82,0.00,OVC,OVC,0.20,WeatherDisplay:10.31,2013-08-19 02:30:00,
2013-08-18 22:40:00,66.9,61.6,30.12,NW,315,0.0,3.0,83,0.00,OVC,OVC,0.20,WeatherDisplay:10.31,2013-08-19 02:40:00,
2013-08-18 22:50:00,66.6,61.3,30.13,NW,315,2.0,3.0,83,0.00,OVC,OVC,0.20,WeatherDisplay:10.31,2013-08-19 02:50:00,
2013-08-18 23:00:00,66.3,61.3,30.12,NW,315,2.0,3.0,84,0.00,OVC,OVC,0.20,WeatherDisplay:10.31,2013-08-19 03:00:00,
2013-08-18 23:05:00,66.1,61.1,30.12,NW,315,1.0,3.0,84,0.00,OVC,OVC,0.20,WeatherDisplay:10.31,2013-08-19 03:05:00,
2013-08-18 23:10:00,66.0,61.4,30.12,NW,315,2.0,3.0,85,0.00,OVC,OVC,0.20,WeatherDisplay:10.31,2013-08-19 03:10:00,
2013-08-18 23:20:00,65.8,61.2,30.12,NW,315,2.0,3.0,85,0.00,OVC,OVC,0.20,WeatherDisplay:10.31,2013-08-19 03:20:00,
2013-08-18 23:30:00,65.8,61.2,30.12,NW,315,3.0,3.0,85,0.00,OVC,OVC,0.20,WeatherDisplay:10.31,2013-08-19 03:30:00,
2013-08-18 23:40:00,65.6,61.3,30.12,NW,311,3.0,5.0,86,0.00,OVC,OVC,0.20,WeatherDisplay:10.31,2013-08-19 03:40:00,
2013-08-18 23:50:00,65.5,61.2,30.12,WNW,292,2.0,3.0,86,0.00,OVC,OVC,0.20,WeatherDisplay:10.31,2013-08-19 03:50:00,